createdAt,value
2023-02-17T00:01:13.523Z,102047.16
2023-02-17T00:03:41.299Z,102050.72
2023-02-17T00:06:10.016Z,102043.53
2023-02-17T00:08:37.685Z,102039.06
2023-02-17T00:11:05.332Z,102048.75
2023-02-17T00:13:33.534Z,102044.28
2023-02-17T00:16:01.021Z,102047.03
2023-02-17T00:18:28.371Z,102040.13
2023-02-17T00:20:55.634Z,102034.47
2023-02-17T00:23:22.925Z,102036.81
2023-02-17T00:25:50.143Z,102039.22
2023-02-17T00:28:17.434Z,102037.00
2023-02-17T00:30:44.939Z,102028.44
2023-02-17T00:33:12.253Z,102032.31
2023-02-17T00:35:40.961Z,102035.50
2023-02-17T00:38:09.432Z,102031.75
2023-02-17T00:40:37.099Z,102029.63
2023-02-17T00:43:04.461Z,102028.34
2023-02-17T00:45:31.742Z,102022.56
2023-02-17T00:47:59.247Z,102022.00
2023-02-17T00:50:26.574Z,102024.53
2023-02-17T00:52:54.133Z,102015.22
2023-02-17T00:55:21.446Z,102014.38
2023-02-17T00:57:48.862Z,102014.63
2023-02-17T01:00:16.896Z,102019.28
2023-02-17T01:02:44.347Z,102014.38
2023-02-17T01:05:11.600Z,102020.22
2023-02-17T01:07:38.918Z,102016.78
2023-02-17T01:10:07.293Z,102021.66
2023-02-17T01:12:34.727Z,102023.97
2023-02-17T01:15:02.003Z,102026.31
2023-02-17T01:17:29.333Z,102021.56
2023-02-17T01:19:57.775Z,102016.84
2023-02-17T01:22:25.225Z,102027.31
2023-02-17T01:24:52.501Z,102020.00
2023-02-17T01:27:19.873Z,102026.06
2023-02-17T01:29:48.340Z,102018.63
2023-02-17T01:32:15.689Z,102022.22
2023-02-17T01:34:43.067Z,102023.63
2023-02-17T01:37:10.299Z,102023.09
2023-02-17T01:39:37.569Z,102022.16
2023-02-17T01:42:04.842Z,102024.38
2023-02-17T01:44:33.026Z,102021.56
2023-02-17T01:47:00.281Z,102015.41
2023-02-17T01:49:37.472Z,102008.78
2023-02-17T01:52:10.171Z,102006.88
2023-02-17T01:54:47.885Z,102012.03
2023-02-17T01:57:17.205Z,102017.63
2023-02-17T01:59:44.998Z,102014.31
2023-02-17T02:02:12.531Z,102023.97
2023-02-17T02:04:45.600Z,102015.31
2023-02-17T02:07:22.521Z,102017.25
2023-02-17T02:09:53.157Z,102000.13
2023-02-17T02:12:32.058Z,102008.94
2023-02-17T02:15:15.286Z,102009.00
2023-02-17T02:18:07.423Z,102007.22
2023-02-17T02:20:40.927Z,101999.16
2023-02-17T02:23:39.217Z,102014.03
2023-02-17T02:26:25.048Z,102002.41
2023-02-17T02:29:26.260Z,102005.84
2023-02-17T02:32:32.613Z,101999.88
2023-02-17T02:35:11.836Z,102009.84
2023-02-17T02:37:53.309Z,102008.50
2023-02-17T02:40:24.710Z,102005.19
2023-02-17T02:42:52.105Z,101999.66
2023-02-17T02:45:19.814Z,102000.09
2023-02-17T02:47:52.674Z,102003.34
2023-02-17T02:50:42.066Z,101994.97
2023-02-17T02:53:31.253Z,101985.59
2023-02-17T02:55:58.620Z,101982.44
2023-02-17T02:58:42.559Z,101988.38
2023-02-17T03:01:24.592Z,101988.63
2023-02-17T03:04:12.156Z,101984.97
2023-02-17T03:06:53.387Z,101987.03
2023-02-17T03:09:23.302Z,101998.97
2023-02-17T03:11:51.196Z,101991.59
2023-02-17T03:14:21.343Z,101990.75
2023-02-17T03:16:49.859Z,101995.94
2023-02-17T03:19:20.177Z,101990.28
2023-02-17T03:22:10.631Z,101989.06
2023-02-17T03:24:38.047Z,101988.66
2023-02-17T03:27:08.039Z,101995.13
2023-02-17T03:29:35.453Z,101989.03
2023-02-17T03:32:02.912Z,101978.78
2023-02-17T03:34:30.318Z,101986.94
2023-02-17T03:36:57.643Z,101989.22
2023-02-17T03:39:24.949Z,101978.25
2023-02-17T03:41:52.453Z,101976.84
2023-02-17T03:44:20.065Z,101980.44
2023-02-17T03:46:47.346Z,101984.44
2023-02-17T03:49:14.928Z,101983.50
2023-02-17T03:51:42.226Z,101979.84
2023-02-17T03:54:09.547Z,101977.38
2023-02-17T03:56:37.130Z,101987.31
2023-02-17T03:59:04.655Z,101988.28
2023-02-17T04:01:31.947Z,101988.50
2023-02-17T04:03:59.411Z,101995.97
2023-02-17T04:06:26.854Z,102003.25
2023-02-17T04:08:54.144Z,102006.66
2023-02-17T04:11:21.489Z,102009.41
2023-02-17T04:13:48.788Z,102010.25
2023-02-17T04:16:16.062Z,102003.34
2023-02-17T04:18:43.533Z,102013.53
2023-02-17T04:21:10.729Z,102003.41
2023-02-17T04:23:38.147Z,102014.56
2023-02-17T04:26:07.445Z,102015.63
2023-02-17T04:28:37.623Z,102018.94
2023-02-17T04:31:05.212Z,102023.63
2023-02-17T04:33:32.636Z,102016.31
2023-02-17T04:36:00.121Z,102026.63
2023-02-17T04:38:29.730Z,102024.84
2023-02-17T04:40:57.878Z,102020.00
2023-02-17T04:43:26.583Z,102022.78
2023-02-17T04:45:54.373Z,102016.84
2023-02-17T04:48:21.696Z,102020.72
2023-02-17T04:50:49.007Z,102012.66
2023-02-17T04:53:16.414Z,102020.94
2023-02-17T04:55:43.841Z,102025.88
2023-02-17T04:58:13.759Z,102030.81
2023-02-17T05:00:41.081Z,102027.22
2023-02-17T05:03:08.416Z,102031.50
2023-02-17T05:05:35.869Z,102033.38
2023-02-17T05:08:03.256Z,102042.19
2023-02-17T05:10:30.638Z,102027.00
2023-02-17T05:12:57.900Z,102037.59
2023-02-17T05:15:25.244Z,102040.38
2023-02-17T05:17:52.694Z,102040.75
2023-02-17T05:20:20.030Z,102040.38
2023-02-17T05:22:47.286Z,102045.44
2023-02-17T05:25:14.744Z,102041.03
2023-02-17T05:27:42.038Z,102041.72
2023-02-17T05:30:10.106Z,102049.19
2023-02-17T05:32:47.924Z,102044.25
2023-02-17T05:35:15.625Z,102051.56
2023-02-17T05:37:42.978Z,102049.56
2023-02-17T05:40:12.416Z,102041.88
2023-02-17T05:42:39.664Z,102047.75
2023-02-17T05:45:07.346Z,102048.06
2023-02-17T05:47:38.597Z,102045.75
2023-02-17T05:50:06.693Z,102048.41
2023-02-17T05:52:34.095Z,102050.28
2023-02-17T05:55:03.247Z,102046.34
2023-02-17T05:57:31.196Z,102051.72
2023-02-17T05:59:58.567Z,102052.78
2023-02-17T06:02:25.853Z,102056.34
2023-02-17T06:04:53.310Z,102054.28
2023-02-17T06:07:20.731Z,102051.59
2023-02-17T06:09:48.320Z,102050.03
2023-02-17T06:12:16.061Z,102057.47
2023-02-17T06:14:43.424Z,102059.00
2023-02-17T06:17:10.980Z,102059.59
2023-02-17T06:19:38.330Z,102067.06
2023-02-17T06:22:05.804Z,102071.03
2023-02-17T06:24:33.063Z,102065.03
2023-02-17T06:27:01.336Z,102074.16
2023-02-17T06:29:28.784Z,102078.84
2023-02-17T06:31:56.100Z,102084.44
2023-02-17T06:34:25.010Z,102083.53
2023-02-17T06:36:52.303Z,102091.50
2023-02-17T06:39:19.605Z,102099.50
2023-02-17T06:41:46.916Z,102101.47
2023-02-17T06:44:14.348Z,102106.25
2023-02-17T06:46:41.798Z,102106.88
2023-02-17T06:49:09.025Z,102108.97
2023-02-17T06:51:36.279Z,102108.78
2023-02-17T06:54:03.778Z,102105.72
2023-02-17T06:56:31.087Z,102112.53
2023-02-17T06:58:58.373Z,102131.44
2023-02-17T07:01:26.501Z,102128.22
2023-02-17T07:03:54.930Z,102137.16
2023-02-17T07:06:23.658Z,102135.31
2023-02-17T07:08:51.445Z,102133.44
2023-02-17T07:11:19.271Z,102141.97
2023-02-17T07:13:47.085Z,102135.47
2023-02-17T07:16:15.155Z,102141.06
2023-02-17T07:18:42.588Z,102134.34
2023-02-17T07:21:10.224Z,102145.88
2023-02-17T07:23:38.485Z,102149.97
2023-02-17T07:26:09.628Z,102146.38
2023-02-17T07:28:38.007Z,102146.63
2023-02-17T07:31:06.869Z,102155.69
2023-02-17T07:33:35.076Z,102149.91
2023-02-17T07:36:07.398Z,102159.66
2023-02-17T07:38:34.995Z,102155.56
2023-02-17T07:41:13.069Z,102154.44
2023-02-17T07:43:40.888Z,102153.47
2023-02-17T07:46:10.513Z,102160.75
2023-02-17T07:48:38.407Z,102157.13
2023-02-17T07:51:11.542Z,102162.28
2023-02-17T07:53:39.399Z,102162.25
2023-02-17T07:56:09.074Z,102169.28
2023-02-17T07:58:38.320Z,102170.72
2023-02-17T08:01:07.419Z,102164.50
2023-02-17T08:03:34.787Z,102167.72
2023-02-17T08:06:02.340Z,102175.41
2023-02-17T08:08:48.368Z,102171.97
2023-02-17T08:11:35.356Z,102175.50
2023-02-17T08:14:03.074Z,102175.34
2023-02-17T08:16:30.410Z,102178.94
2023-02-17T08:18:57.886Z,102182.44
2023-02-17T08:21:26.570Z,102181.78
2023-02-17T08:23:54.840Z,102192.03
2023-02-17T08:26:22.635Z,102192.78
2023-02-17T08:28:50.937Z,102188.59
2023-02-17T08:31:24.079Z,102185.88
2023-02-17T08:33:51.962Z,102187.09
2023-02-17T08:36:22.161Z,102189.84
2023-02-17T08:38:51.226Z,102191.50
2023-02-17T08:41:18.272Z,102186.34
2023-02-17T08:43:45.783Z,102186.78
2023-02-17T08:46:14.361Z,102189.72
2023-02-17T08:48:42.485Z,102191.66
2023-02-17T08:51:13.303Z,102187.25
2023-02-17T08:53:40.782Z,102190.09
2023-02-17T08:56:08.497Z,102198.91
2023-02-17T08:58:36.668Z,102189.56
2023-02-17T09:01:04.366Z,102190.75
2023-02-17T09:03:34.564Z,102202.06
2023-02-17T09:06:02.215Z,102194.50
2023-02-17T09:08:29.678Z,102194.50
2023-02-17T09:10:57.773Z,102186.78
2023-02-17T09:13:29.142Z,102183.34
2023-02-17T09:15:56.731Z,102194.81
2023-02-17T09:18:25.162Z,102187.38
2023-02-17T09:20:52.459Z,102190.13
2023-02-17T09:23:20.168Z,102188.88
2023-02-17T09:25:47.825Z,102199.75
2023-02-17T09:28:15.716Z,102206.47
2023-02-17T09:30:43.656Z,102197.22
2023-02-17T09:33:10.979Z,102196.81
2023-02-17T09:35:38.904Z,102197.25
2023-02-17T09:38:07.123Z,102204.16
2023-02-17T09:40:47.349Z,102203.47
2023-02-17T09:43:15.553Z,102210.75
2023-02-17T09:45:45.981Z,102206.19
2023-02-17T09:48:16.942Z,102209.69
2023-02-17T09:50:59.036Z,102211.88
2023-02-17T09:54:02.147Z,102194.91
2023-02-17T09:56:34.984Z,102193.31
2023-02-17T09:59:23.624Z,102190.03
2023-02-17T10:01:52.593Z,102197.03
2023-02-17T10:04:36.380Z,102206.78
2023-02-17T10:07:15.384Z,102209.84
2023-02-17T10:09:49.509Z,102207.59
2023-02-17T10:12:22.261Z,102210.38
2023-02-17T10:14:52.898Z,102210.06
2023-02-17T10:17:29.257Z,102218.44
2023-02-17T10:20:06.281Z,102224.38
2023-02-17T10:22:34.482Z,102223.53
2023-02-17T10:25:05.156Z,102213.84
2023-02-17T10:27:42.836Z,102221.19
2023-02-17T10:30:25.577Z,102215.97
2023-02-17T10:33:05.182Z,102226.25
2023-02-17T10:35:49.168Z,102228.44
2023-02-17T10:38:27.523Z,102223.63
2023-02-17T10:40:55.681Z,102218.75
2023-02-17T10:43:27.083Z,102221.53
2023-02-17T10:45:54.568Z,102223.59
2023-02-17T10:48:22.873Z,102220.06
2023-02-17T10:50:50.711Z,102216.34
2023-02-17T10:53:21.344Z,102222.06
2023-02-17T10:56:14.583Z,102210.97
2023-02-17T10:59:02.976Z,102210.69
2023-02-17T11:01:30.420Z,102216.34
2023-02-17T11:04:03.006Z,102225.84
2023-02-17T11:06:31.407Z,102222.63
2023-02-17T11:09:20.667Z,102225.09
2023-02-17T11:11:53.533Z,102224.03
2023-02-17T11:14:27.938Z,102217.56
2023-02-17T11:17:21.430Z,102221.28
2023-02-17T11:20:06.243Z,102232.41
2023-02-17T11:22:42.567Z,102246.28
2023-02-17T11:25:27.829Z,102246.91
2023-02-17T11:28:00.297Z,102239.06
2023-02-17T11:30:29.682Z,102243.00
2023-02-17T11:32:57.127Z,102239.00
2023-02-17T11:35:50.957Z,102240.16
2023-02-17T11:38:21.881Z,102228.28
2023-02-17T11:40:58.456Z,102230.41
2023-02-17T11:43:28.595Z,102226.41
2023-02-17T11:46:00.908Z,102228.66
2023-02-17T11:48:56.424Z,102230.50
2023-02-17T11:51:35.553Z,102235.81
2023-02-17T11:54:05.817Z,102234.78
2023-02-17T11:56:37.306Z,102228.44
2023-02-17T11:59:39.856Z,102223.22
2023-02-17T12:02:30.044Z,102215.81
2023-02-17T12:05:00.259Z,102208.81
2023-02-17T12:07:33.516Z,102206.56
2023-02-17T12:10:24.734Z,102208.75
2023-02-17T12:13:04.007Z,102195.97
2023-02-17T12:16:02.935Z,102199.78
2023-02-17T12:18:36.010Z,102192.19
2023-02-17T12:21:13.568Z,102188.88
2023-02-17T12:23:47.074Z,102184.97
2023-02-17T12:26:19.565Z,102182.09
2023-02-17T12:29:11.887Z,102175.75
2023-02-17T12:31:42.261Z,102177.34
2023-02-17T12:34:39.677Z,102169.78
2023-02-17T12:37:08.225Z,102168.84
2023-02-17T12:39:42.349Z,102166.81
2023-02-17T12:42:20.577Z,102169.44
2023-02-17T12:44:51.411Z,102162.88
2023-02-17T12:47:27.675Z,102168.94
2023-02-17T12:50:02.476Z,102169.13
2023-02-17T12:52:37.976Z,102175.31
2023-02-17T12:55:20.951Z,102173.50
2023-02-17T12:58:21.744Z,102165.41
2023-02-17T13:00:54.574Z,102161.06
2023-02-17T13:03:22.251Z,102160.50
2023-02-17T13:06:14.506Z,102161.25
2023-02-17T13:08:48.528Z,102162.06
2023-02-17T13:11:31.245Z,102151.50
2023-02-17T13:13:59.132Z,102155.97
2023-02-17T13:16:28.519Z,102163.56
2023-02-17T13:18:55.794Z,102167.63
2023-02-17T13:21:25.248Z,102163.63
2023-02-17T13:24:03.770Z,102166.72
2023-02-17T13:26:36.226Z,102157.69
2023-02-17T13:29:08.919Z,102152.63
2023-02-17T13:31:55.115Z,102142.53
2023-02-17T13:34:42.856Z,102143.94
2023-02-17T13:37:26.489Z,102158.44
2023-02-17T13:39:54.084Z,102156.00
2023-02-17T13:42:44.455Z,102148.34
2023-02-17T13:45:16.865Z,102154.34
2023-02-17T13:47:46.130Z,102153.63
2023-02-17T13:50:28.266Z,102155.63
2023-02-17T13:52:55.867Z,102163.47
2023-02-17T13:55:24.313Z,102156.00
2023-02-17T13:57:54.167Z,102142.78
2023-02-17T14:00:26.646Z,102152.25
2023-02-17T14:03:11.879Z,102160.16
2023-02-17T14:05:44.004Z,102160.56
2023-02-17T14:08:25.808Z,102161.13
2023-02-17T14:10:53.416Z,102167.94
2023-02-17T14:13:22.770Z,102162.03
2023-02-17T14:15:52.944Z,102164.78
2023-02-17T14:18:30.854Z,102160.06
2023-02-17T14:21:08.179Z,102156.16
2023-02-17T14:24:01.759Z,102156.72
2023-02-17T14:26:36.753Z,102145.97
2023-02-17T14:29:06.888Z,102148.50
2023-02-17T14:31:38.064Z,102138.06
2023-02-17T14:34:05.793Z,102133.72
2023-02-17T14:36:38.316Z,102131.16
2023-02-17T14:39:07.883Z,102145.03
2023-02-17T14:41:35.204Z,102135.66
2023-02-17T14:44:02.524Z,102145.56
2023-02-17T14:46:29.756Z,102136.47
2023-02-17T14:48:57.130Z,102143.94
2023-02-17T14:51:26.686Z,102151.66
2023-02-17T14:53:54.097Z,102146.84
2023-02-17T14:56:25.893Z,102140.53
2023-02-17T14:58:54.009Z,102149.31
2023-02-17T15:01:23.080Z,102146.28
2023-02-17T15:03:50.844Z,102148.34
2023-02-17T15:06:28.825Z,102152.13
2023-02-17T15:08:57.348Z,102148.84
2023-02-17T15:11:31.502Z,102134.13
2023-02-17T15:13:58.768Z,102145.84
2023-02-17T15:16:26.141Z,102140.19
2023-02-17T15:18:53.439Z,102143.94
2023-02-17T15:21:33.538Z,102147.44
2023-02-17T15:24:02.047Z,102143.66
2023-02-17T15:26:33.174Z,102140.84
2023-02-17T15:29:00.429Z,102140.53
2023-02-17T15:31:29.850Z,102140.88
2023-02-17T15:33:58.979Z,102137.41
2023-02-17T15:36:27.355Z,102135.53
2023-02-17T15:38:54.902Z,102139.94
2023-02-17T15:41:26.964Z,102139.97
2023-02-17T15:43:56.169Z,102144.53
2023-02-17T15:46:29.284Z,102136.72
2023-02-17T15:48:56.500Z,102134.09
2023-02-17T15:51:24.776Z,102138.13
2023-02-17T15:53:52.389Z,102141.69
2023-02-17T15:56:22.981Z,102144.63
2023-02-17T15:58:50.968Z,102151.19
2023-02-17T16:01:29.885Z,102148.84
2023-02-17T16:03:57.461Z,102145.09
2023-02-17T16:06:25.625Z,102159.31
2023-02-17T16:08:53.071Z,102158.56
2023-02-17T16:11:21.496Z,102162.94
2023-02-17T16:13:48.876Z,102167.81
2023-02-17T16:16:22.128Z,102178.59
2023-02-17T16:18:50.203Z,102170.00
2023-02-17T16:21:17.787Z,102177.94
2023-02-17T16:23:45.400Z,102173.97
2023-02-17T16:26:23.265Z,102164.41
2023-02-17T16:28:50.675Z,102166.19
2023-02-17T16:31:17.938Z,102160.84
2023-02-17T16:33:45.294Z,102170.50
2023-02-17T16:36:15.506Z,102173.66
2023-02-17T16:38:43.421Z,102173.38
2023-02-17T16:41:14.920Z,102167.81
2023-02-17T16:43:42.837Z,102169.38
2023-02-17T16:46:30.127Z,102162.53
2023-02-17T16:48:58.250Z,102165.75
2023-02-17T16:51:25.694Z,102154.56
2023-02-17T16:53:53.144Z,102159.47
2023-02-17T16:56:28.863Z,102152.59
2023-02-17T16:58:56.253Z,102154.16
2023-02-17T17:01:24.337Z,102159.09
2023-02-17T17:03:51.889Z,102168.88
2023-02-17T17:06:24.968Z,102159.44
2023-02-17T17:08:52.425Z,102157.06
2023-02-17T17:11:23.085Z,102160.28
2023-02-17T17:13:51.214Z,102165.66
2023-02-17T17:16:27.646Z,102182.38
2023-02-17T17:18:55.029Z,102171.22
2023-02-17T17:21:22.492Z,102174.22
2023-02-17T17:23:50.885Z,102184.81
2023-02-17T17:26:27.074Z,102176.38
2023-02-17T17:28:54.882Z,102184.69
2023-02-17T17:31:22.851Z,102181.19
2023-02-17T17:33:51.116Z,102186.91
2023-02-17T17:36:34.152Z,102182.59
2023-02-17T17:39:03.117Z,102183.91
2023-02-17T17:41:30.636Z,102180.78
2023-02-17T17:43:58.624Z,102185.69
2023-02-17T17:46:31.558Z,102197.13
2023-02-17T17:49:00.376Z,102198.91
2023-02-17T17:51:29.533Z,102206.84
2023-02-17T17:53:57.127Z,102208.72
2023-02-17T17:56:27.259Z,102213.47
2023-02-17T17:58:54.878Z,102222.47
2023-02-17T18:01:22.721Z,102231.56
2023-02-17T18:03:50.583Z,102230.88
2023-02-17T18:06:32.688Z,102243.06
2023-02-17T18:09:03.590Z,102240.66
2023-02-17T18:11:32.452Z,102247.19
2023-02-17T18:14:03.285Z,102253.13
2023-02-17T18:16:32.229Z,102255.03
2023-02-17T18:19:01.192Z,102257.03
2023-02-17T18:21:28.845Z,102262.81
2023-02-17T18:23:56.545Z,102276.13
2023-02-17T18:26:24.129Z,102280.63
2023-02-17T18:28:51.375Z,102288.19
2023-02-17T18:31:19.573Z,102283.94
2023-02-17T18:33:47.098Z,102287.78
2023-02-17T18:36:18.226Z,102299.59
2023-02-17T18:38:45.969Z,102302.75
2023-02-17T18:41:24.132Z,102297.06
2023-02-17T18:43:52.280Z,102289.72
2023-02-17T18:46:20.134Z,102290.97
2023-02-17T18:48:47.843Z,102299.94
2023-02-17T18:51:17.461Z,102300.88
2023-02-17T18:53:45.383Z,102297.78
2023-02-17T18:56:16.177Z,102295.44
2023-02-17T18:58:43.574Z,102310.69
2023-02-17T19:01:22.812Z,102311.16
2023-02-17T19:03:50.479Z,102322.16
2023-02-17T19:06:20.971Z,102321.41
2023-02-17T19:08:49.546Z,102320.56
2023-02-17T19:11:18.134Z,102323.03
2023-02-17T19:13:45.715Z,102316.59
2023-02-17T19:16:19.611Z,102320.25
2023-02-17T19:18:48.372Z,102321.00
2023-02-17T19:21:16.320Z,102324.63
2023-02-17T19:23:43.952Z,102329.34
2023-02-17T19:26:12.546Z,102336.06
2023-02-17T19:28:40.818Z,102335.00
2023-02-17T19:31:10.213Z,102326.47
2023-02-17T19:33:38.056Z,102327.91
2023-02-17T19:36:13.827Z,102320.72
2023-02-17T19:38:41.455Z,102322.31
2023-02-17T19:41:10.393Z,102323.34
2023-02-17T19:43:37.924Z,102332.22
2023-02-17T19:46:05.960Z,102335.50
2023-02-17T19:48:35.920Z,102325.41
2023-02-17T19:51:08.281Z,102333.84
2023-02-17T19:53:36.563Z,102337.38
2023-02-17T19:56:24.028Z,102338.66
2023-02-17T19:58:52.087Z,102343.06
2023-02-17T20:01:22.047Z,102340.03
2023-02-17T20:03:49.385Z,102345.88
2023-02-17T20:06:26.814Z,102335.28
2023-02-17T20:09:00.177Z,102334.50
2023-02-17T20:11:29.164Z,102332.00
2023-02-17T20:14:00.900Z,102338.03
2023-02-17T20:16:29.421Z,102331.97
2023-02-17T20:18:57.053Z,102337.81
2023-02-17T20:21:26.219Z,102343.88
2023-02-17T20:23:55.043Z,102358.03
2023-02-17T20:26:30.570Z,102342.47
2023-02-17T20:28:58.405Z,102348.34
2023-02-17T20:31:27.146Z,102338.44
2023-02-17T20:33:54.914Z,102335.91
2023-02-17T20:36:22.423Z,102337.91
2023-02-17T20:38:53.371Z,102347.03
2023-02-17T20:41:22.910Z,102347.56
2023-02-17T20:43:50.959Z,102344.47
2023-02-17T20:46:26.732Z,102355.88
2023-02-17T20:48:54.416Z,102349.59
2023-02-17T20:51:22.444Z,102349.06
2023-02-17T20:53:50.075Z,102347.50
2023-02-17T20:56:20.346Z,102347.03
2023-02-17T20:58:47.748Z,102342.28
2023-02-17T21:01:15.100Z,102343.38
2023-02-17T21:03:42.745Z,102342.31
2023-02-17T21:06:26.651Z,102346.13
2023-02-17T21:08:57.222Z,102356.06
2023-02-17T21:11:24.884Z,102360.13
2023-02-17T21:13:52.974Z,102361.38
2023-02-17T21:16:27.429Z,102350.59
2023-02-17T21:18:54.970Z,102349.94
2023-02-17T21:21:22.646Z,102347.06
2023-02-17T21:23:49.976Z,102345.19
2023-02-17T21:26:17.636Z,102341.22
2023-02-17T21:28:45.720Z,102345.31
2023-02-17T21:31:14.929Z,102346.38
2023-02-17T21:33:43.247Z,102355.28
2023-02-17T21:36:13.601Z,102358.03
2023-02-17T21:38:41.207Z,102365.53
2023-02-17T21:41:11.110Z,102374.28
2023-02-17T21:43:58.077Z,102369.50
2023-02-17T21:46:26.950Z,102365.69
2023-02-17T21:48:56.084Z,102352.19
2023-02-17T21:51:23.848Z,102350.75
2023-02-17T21:53:52.786Z,102362.09
2023-02-17T21:56:22.418Z,102362.50
2023-02-17T21:58:52.356Z,102358.97
2023-02-17T22:01:20.993Z,102358.16
2023-02-17T22:03:48.435Z,102356.41
2023-02-17T22:06:25.492Z,102355.38
2023-02-17T22:08:53.368Z,102349.78
2023-02-17T22:11:23.821Z,102359.97
2023-02-17T22:13:55.346Z,102356.88
2023-02-17T22:16:23.343Z,102366.28
2023-02-17T22:18:51.284Z,102362.56
2023-02-17T22:21:18.823Z,102366.16
2023-02-17T22:23:46.477Z,102366.63
2023-02-17T22:26:19.841Z,102361.03
2023-02-17T22:28:48.138Z,102358.69
2023-02-17T22:31:18.440Z,102359.34
2023-02-17T22:33:46.479Z,102351.88
2023-02-17T22:36:16.568Z,102354.44
2023-02-17T22:38:44.037Z,102358.09
2023-02-17T22:41:15.458Z,102357.44
2023-02-17T22:43:46.431Z,102361.31
2023-02-17T22:46:16.406Z,102357.66
2023-02-17T22:48:45.941Z,102359.56
2023-02-17T22:51:22.066Z,102357.34
2023-02-17T22:53:49.869Z,102349.66
2023-02-17T22:56:17.357Z,102353.59
2023-02-17T22:58:44.676Z,102347.06
2023-02-17T23:01:17.783Z,102346.28
2023-02-17T23:03:45.737Z,102356.66
2023-02-17T23:06:19.005Z,102353.38
2023-02-17T23:08:47.044Z,102355.03
2023-02-17T23:11:18.215Z,102349.72
2023-02-17T23:13:45.816Z,102345.50
2023-02-17T23:16:18.969Z,102351.09
2023-02-17T23:18:46.314Z,102348.81
2023-02-17T23:21:13.819Z,102348.34
2023-02-17T23:23:42.482Z,102353.22
2023-02-17T23:26:10.185Z,102348.00
2023-02-17T23:28:37.574Z,102339.03
2023-02-17T23:31:09.725Z,102349.22
2023-02-17T23:33:37.526Z,102348.28
2023-02-17T23:36:05.616Z,102348.19
2023-02-17T23:38:34.404Z,102344.44
2023-02-17T23:41:01.715Z,102347.91
2023-02-17T23:43:29.248Z,102350.16
2023-02-17T23:45:56.774Z,102341.59
2023-02-17T23:48:25.586Z,102340.59
2023-02-17T23:50:58.188Z,102344.22
2023-02-17T23:53:25.805Z,102350.28
2023-02-17T23:56:14.138Z,102346.38
2023-02-17T23:58:41.753Z,102349.22
